createdAt,value
2022-09-03T00:02:31.749Z,99219.88
2022-09-03T00:05:05.516Z,99227.88
2022-09-03T00:07:16.889Z,99222.03
2022-09-03T00:09:22.549Z,99223.97
2022-09-03T00:11:39.304Z,99231.16
2022-09-03T00:13:52.735Z,99225.81
2022-09-03T00:15:58.224Z,99222.06
2022-09-03T00:18:15.453Z,99224.78
2022-09-03T00:20:41.123Z,99228.66
2022-09-03T00:22:48.949Z,99225.69
2022-09-03T00:24:52.935Z,99232.38
2022-09-03T00:27:03.545Z,99228.03
2022-09-03T00:29:31.691Z,99233.50
2022-09-03T00:31:47.802Z,99227.81
2022-09-03T00:33:58.838Z,99228.16
2022-09-03T00:36:04.352Z,99250.28
2022-09-03T00:38:07.379Z,99241.91
2022-09-03T00:40:26.166Z,99252.31
2022-09-03T00:42:58.356Z,99254.53
2022-09-03T00:45:21.135Z,99260.63
2022-09-03T00:47:37.458Z,99262.31
2022-09-03T00:49:56.245Z,99265.69
2022-09-03T00:52:23.496Z,99266.25
2022-09-03T00:54:43.234Z,99268.28
2022-09-03T00:57:02.719Z,99266.16
2022-09-03T00:59:26.641Z,99261.28
2022-09-03T01:01:46.410Z,99258.38
2022-09-03T01:04:30.237Z,99245.91
2022-09-03T01:06:32.783Z,99257.63
2022-09-03T01:09:00.688Z,99264.50
2022-09-03T01:11:10.821Z,99264.81
2022-09-03T01:13:31.790Z,99272.50
2022-09-03T01:15:53.396Z,99267.84
2022-09-03T01:18:25.549Z,99262.56
2022-09-03T01:20:28.946Z,99262.81
2022-09-03T01:23:05.194Z,99273.09
2022-09-03T01:25:32.372Z,99268.25
2022-09-03T01:28:02.632Z,99253.81
2022-09-03T01:30:07.290Z,99258.16
2022-09-03T01:32:21.686Z,99266.66
2022-09-03T01:34:46.053Z,99257.63
2022-09-03T01:37:10.336Z,99275.13
2022-09-03T01:39:25.214Z,99271.88
2022-09-03T01:41:58.571Z,99275.13
2022-09-03T01:44:07.360Z,99274.31
2022-09-03T01:46:23.966Z,99273.50
2022-09-03T01:48:43.663Z,99277.13
2022-09-03T01:51:00.413Z,99292.41
2022-09-03T01:53:12.070Z,99287.22
2022-09-03T01:55:51.888Z,99295.13
2022-09-03T01:58:26.744Z,99287.75
2022-09-03T02:00:33.599Z,99293.13
2022-09-03T02:02:37.222Z,99305.84
2022-09-03T02:04:39.907Z,99309.63
2022-09-03T02:06:42.750Z,99301.56
2022-09-03T02:08:45.395Z,99309.84
2022-09-03T02:10:53.912Z,99308.13
2022-09-03T02:13:01.855Z,99308.34
2022-09-03T02:15:13.556Z,99320.88
2022-09-03T02:17:16.401Z,99323.72
2022-09-03T02:19:19.223Z,99327.34
2022-09-03T02:21:25.611Z,99326.03
2022-09-03T02:23:28.899Z,99312.66
2022-09-03T02:25:40.522Z,99312.16
2022-09-03T02:27:44.746Z,99317.63
2022-09-03T02:29:47.774Z,99316.63
2022-09-03T02:31:50.419Z,99328.63
2022-09-03T02:33:53.089Z,99316.09
2022-09-03T02:35:56.161Z,99320.44
2022-09-03T02:38:10.141Z,99336.31
2022-09-03T02:40:12.836Z,99343.09
2022-09-03T02:42:16.183Z,99340.88
2022-09-03T02:44:31.982Z,99334.41
2022-09-03T02:46:45.131Z,99348.09
2022-09-03T02:48:47.821Z,99346.63
2022-09-03T02:50:50.619Z,99354.09
2022-09-03T02:52:53.848Z,99357.03
2022-09-03T02:54:56.521Z,99354.00
2022-09-03T02:57:00.030Z,99360.56
2022-09-03T02:59:05.154Z,99363.00
2022-09-03T03:01:08.046Z,99360.19
2022-09-03T03:03:10.710Z,99361.19
2022-09-03T03:05:22.058Z,99359.34
2022-09-03T03:07:26.191Z,99365.31
2022-09-03T03:09:29.220Z,99370.69
2022-09-03T03:11:32.170Z,99368.88
2022-09-03T03:13:34.903Z,99382.13
2022-09-03T03:15:37.521Z,99375.88
2022-09-03T03:17:40.198Z,99367.56
2022-09-03T03:19:43.152Z,99371.19
2022-09-03T03:21:46.113Z,99363.69
2022-09-03T03:23:48.914Z,99370.69
2022-09-03T03:25:51.575Z,99371.06
2022-09-03T03:27:57.261Z,99374.41
2022-09-03T03:29:59.875Z,99374.00
2022-09-03T03:32:02.838Z,99377.13
2022-09-03T03:34:05.539Z,99385.41
2022-09-03T03:36:10.762Z,99386.91
2022-09-03T03:38:13.421Z,99380.81
2022-09-03T03:40:16.135Z,99386.78
2022-09-03T03:42:18.722Z,99376.16
2022-09-03T03:44:21.405Z,99381.56
2022-09-03T03:46:25.031Z,99379.53
2022-09-03T03:48:27.758Z,99389.75
2022-09-03T03:50:30.431Z,99388.84
2022-09-03T03:52:33.102Z,99395.19
2022-09-03T03:54:35.743Z,99395.44
2022-09-03T03:56:38.585Z,99394.50
2022-09-03T03:58:45.445Z,99398.91
2022-09-03T04:00:49.722Z,99411.56
2022-09-03T04:02:52.926Z,99416.56
2022-09-03T04:04:55.583Z,99416.13
2022-09-03T04:06:58.264Z,99419.88
2022-09-03T04:09:00.917Z,99428.22
2022-09-03T04:11:07.305Z,99417.41
2022-09-03T04:13:09.918Z,99424.94
2022-09-03T04:15:12.879Z,99426.00
2022-09-03T04:17:15.516Z,99419.03
2022-09-03T04:19:18.182Z,99421.47
2022-09-03T04:21:26.616Z,99424.84
2022-09-03T04:23:35.936Z,99434.66
2022-09-03T04:25:38.863Z,99427.56
2022-09-03T04:27:41.468Z,99431.13
2022-09-03T04:29:44.091Z,99428.56
2022-09-03T04:32:06.646Z,99434.72
2022-09-03T04:34:09.642Z,99439.34
2022-09-03T04:36:17.696Z,99447.75
2022-09-03T04:38:20.341Z,99437.16
2022-09-03T04:40:22.994Z,99438.03
2022-09-03T04:42:25.709Z,99452.56
2022-09-03T04:44:28.276Z,99439.56
2022-09-03T04:46:34.142Z,99449.75
2022-09-03T04:48:37.938Z,99439.97
2022-09-03T04:50:41.860Z,99444.53
2022-09-03T04:52:45.000Z,99426.84
2022-09-03T04:54:47.642Z,99439.63
2022-09-03T04:56:50.282Z,99445.47
2022-09-03T04:58:58.160Z,99455.97
2022-09-03T05:01:08.687Z,99444.88
2022-09-03T05:03:11.493Z,99457.22
2022-09-03T05:05:14.293Z,99452.38
2022-09-03T05:07:16.952Z,99464.31
2022-09-03T05:09:23.037Z,99462.22
2022-09-03T05:11:26.859Z,99467.63
2022-09-03T05:13:29.559Z,99473.75
2022-09-03T05:15:33.412Z,99473.59
2022-09-03T05:17:37.780Z,99485.88
2022-09-03T05:19:40.933Z,99491.88
2022-09-03T05:21:43.742Z,99485.72
2022-09-03T05:23:50.603Z,99493.97
2022-09-03T05:26:01.282Z,99500.44
2022-09-03T05:28:04.224Z,99499.63
2022-09-03T05:30:07.427Z,99500.78
2022-09-03T05:32:10.605Z,99499.63
2022-09-03T05:34:18.183Z,99499.66
2022-09-03T05:36:23.815Z,99500.59
2022-09-03T05:38:26.388Z,99507.22
2022-09-03T05:40:29.657Z,99518.22
2022-09-03T05:42:35.394Z,99506.75
2022-09-03T05:44:38.745Z,99512.41
2022-09-03T05:46:41.436Z,99523.88
2022-09-03T05:48:44.163Z,99529.38
2022-09-03T05:50:46.786Z,99527.59
2022-09-03T05:52:49.571Z,99535.03
2022-09-03T05:54:52.208Z,99547.31
2022-09-03T05:56:55.096Z,99534.88
2022-09-03T05:59:02.220Z,99533.41
2022-09-03T06:01:19.488Z,99535.84
2022-09-03T06:03:22.234Z,99535.06
2022-09-03T06:05:26.552Z,99534.06
2022-09-03T06:07:29.707Z,99542.31
2022-09-03T06:09:32.425Z,99541.19
2022-09-03T06:11:37.432Z,99537.78
2022-09-03T06:13:40.282Z,99542.66
2022-09-03T06:15:42.982Z,99546.34
2022-09-03T06:17:45.553Z,99542.00
2022-09-03T06:19:48.208Z,99551.22
2022-09-03T06:21:50.955Z,99545.22
2022-09-03T06:24:00.169Z,99540.53
2022-09-03T06:26:14.678Z,99551.38
2022-09-03T06:28:23.239Z,99543.75
2022-09-03T06:30:29.143Z,99549.75
2022-09-03T06:32:31.926Z,99561.56
2022-09-03T06:34:34.597Z,99563.34
2022-09-03T06:36:37.363Z,99552.19
2022-09-03T06:38:41.045Z,99546.50
2022-09-03T06:40:44.096Z,99553.75
2022-09-03T06:42:59.490Z,99562.94
2022-09-03T06:45:02.597Z,99552.69
2022-09-03T06:47:05.945Z,99550.44
2022-09-03T06:49:09.811Z,99555.25
2022-09-03T06:51:18.246Z,99557.47
2022-09-03T06:53:22.908Z,99549.06
2022-09-03T06:55:25.502Z,99566.56
2022-09-03T06:57:28.243Z,99555.56
2022-09-03T06:59:30.813Z,99558.13
2022-09-03T07:01:34.766Z,99551.34
2022-09-03T07:03:38.686Z,99557.47
2022-09-03T07:05:41.296Z,99552.78
2022-09-03T07:07:46.569Z,99555.53
2022-09-03T07:09:49.358Z,99553.56
2022-09-03T07:11:51.963Z,99550.16
2022-09-03T07:13:56.169Z,99564.59
2022-09-03T07:16:13.157Z,99556.81
2022-09-03T07:18:15.849Z,99551.97
2022-09-03T07:20:18.560Z,99547.59
2022-09-03T07:22:21.643Z,99555.84
2022-09-03T07:24:29.651Z,99563.97
2022-09-03T07:26:41.469Z,99557.16
2022-09-03T07:28:48.003Z,99548.00
2022-09-03T07:30:55.842Z,99567.88
2022-09-03T07:33:03.044Z,99576.97
2022-09-03T07:35:06.492Z,99587.03
2022-09-03T07:37:09.557Z,99591.91
2022-09-03T07:39:14.066Z,99584.59
2022-09-03T07:41:28.263Z,99584.91
2022-09-03T07:43:38.452Z,99578.94
2022-09-03T07:45:41.540Z,99580.72
2022-09-03T07:47:51.535Z,99579.59
2022-09-03T07:49:54.585Z,99588.50
2022-09-03T07:51:57.210Z,99585.91
2022-09-03T07:54:05.965Z,99601.94
2022-09-03T07:56:11.037Z,99594.47
2022-09-03T07:58:14.464Z,99591.72
2022-09-03T08:00:18.376Z,99597.22
2022-09-03T08:02:21.226Z,99599.97
2022-09-03T08:04:23.917Z,99606.31
2022-09-03T08:06:28.346Z,99608.25
2022-09-03T08:08:35.663Z,99607.13
2022-09-03T08:10:38.987Z,99620.09
2022-09-03T08:12:41.713Z,99614.09
2022-09-03T08:14:44.996Z,99612.16
2022-09-03T08:16:48.329Z,99598.06
2022-09-03T08:18:51.527Z,99611.66
2022-09-03T08:20:54.409Z,99613.59
2022-09-03T08:23:03.521Z,99620.69
2022-09-03T08:25:06.815Z,99628.13
2022-09-03T08:27:14.774Z,99638.63
2022-09-03T08:29:17.696Z,99627.28
2022-09-03T08:31:23.111Z,99624.16
2022-09-03T08:33:46.132Z,99617.81
2022-09-03T08:35:55.197Z,99629.13
2022-09-03T08:37:57.893Z,99627.81
2022-09-03T08:40:00.819Z,99625.38
2022-09-03T08:42:21.771Z,99638.53
2022-09-03T08:44:36.012Z,99625.69
2022-09-03T08:46:51.716Z,99621.63
2022-09-03T08:48:57.208Z,99630.13
2022-09-03T08:51:04.893Z,99619.63
2022-09-03T08:53:30.189Z,99626.34
2022-09-03T08:56:10.522Z,99616.41
2022-09-03T08:58:15.962Z,99621.81
2022-09-03T09:00:19.572Z,99625.28
2022-09-03T09:02:28.351Z,99639.97
2022-09-03T09:04:59.835Z,99645.31
2022-09-03T09:07:08.533Z,99633.03
2022-09-03T09:09:26.062Z,99633.56
2022-09-03T09:11:47.419Z,99625.84
2022-09-03T09:14:07.267Z,99624.72
2022-09-03T09:16:25.985Z,99624.63
2022-09-03T09:18:38.138Z,99640.09
2022-09-03T09:21:21.965Z,99638.38
2022-09-03T09:23:44.116Z,99641.16
2022-09-03T09:25:51.363Z,99654.75
2022-09-03T09:28:01.812Z,99649.03
2022-09-03T09:30:06.014Z,99639.22
2022-09-03T09:32:12.261Z,99641.84
2022-09-03T09:34:15.748Z,99642.88
2022-09-03T09:36:19.735Z,99667.97
2022-09-03T09:38:31.187Z,99669.78
2022-09-03T09:40:38.090Z,99656.66
2022-09-03T09:42:43.962Z,99650.13
2022-09-03T09:44:46.619Z,99681.09
2022-09-03T09:46:54.660Z,99647.84
2022-09-03T09:48:59.041Z,99649.25
2022-09-03T09:51:12.322Z,99662.22
2022-09-03T09:53:21.868Z,99669.84
2022-09-03T09:55:24.731Z,99673.16
2022-09-03T09:57:27.452Z,99657.81
2022-09-03T09:59:31.410Z,99662.41
2022-09-03T10:01:37.308Z,99665.97
2022-09-03T10:03:49.422Z,99668.41
2022-09-03T10:06:22.811Z,99663.25
2022-09-03T10:08:25.805Z,99673.28
2022-09-03T10:10:33.097Z,99671.78
2022-09-03T10:12:44.520Z,99669.72
2022-09-03T10:15:03.941Z,99671.88
2022-09-03T10:17:44.320Z,99674.19
2022-09-03T10:20:30.588Z,99688.78
2022-09-03T10:22:42.374Z,99681.66
2022-09-03T10:25:03.629Z,99682.13
2022-09-03T10:27:12.935Z,99691.34
2022-09-03T10:29:21.523Z,99699.41
2022-09-03T10:31:37.730Z,99705.41
2022-09-03T10:33:53.203Z,99688.06
2022-09-03T10:36:20.296Z,99683.00
2022-09-03T10:38:33.232Z,99676.22
2022-09-03T10:40:38.816Z,99685.22
2022-09-03T10:42:59.622Z,99687.66
2022-09-03T10:45:18.301Z,99685.00
2022-09-03T10:47:44.019Z,99689.16
2022-09-03T10:49:52.198Z,99684.66
2022-09-03T10:52:17.882Z,99683.63
2022-09-03T10:55:08.139Z,99709.06
2022-09-03T10:57:40.648Z,99678.19
2022-09-03T10:59:51.581Z,99685.34
2022-09-03T11:02:25.612Z,99695.09
2022-09-03T11:04:50.332Z,99699.16
2022-09-03T11:07:05.383Z,99684.88
2022-09-03T11:09:23.328Z,99688.22
2022-09-03T11:11:36.752Z,99698.13
2022-09-03T11:13:42.671Z,99692.50
2022-09-03T11:15:56.075Z,99698.25
2022-09-03T11:18:13.116Z,99699.31
2022-09-03T11:20:24.120Z,99691.72
2022-09-03T11:22:30.028Z,99699.94
2022-09-03T11:24:35.065Z,99706.84
2022-09-03T11:26:39.848Z,99708.69
2022-09-03T11:29:06.457Z,99698.78
2022-09-03T11:31:48.251Z,99699.47
2022-09-03T11:34:23.325Z,99709.16
2022-09-03T11:36:37.008Z,99713.97
2022-09-03T11:38:39.873Z,99703.78
2022-09-03T11:41:26.373Z,99715.66
2022-09-03T11:43:34.464Z,99706.09
2022-09-03T11:45:38.779Z,99710.81
2022-09-03T11:47:44.035Z,99709.31
2022-09-03T11:49:50.996Z,99713.47
2022-09-03T11:52:02.864Z,99707.63
2022-09-03T11:54:27.592Z,99689.91
2022-09-03T11:56:32.113Z,99711.91
2022-09-03T11:58:38.283Z,99704.75
2022-09-03T12:00:45.070Z,99709.72
2022-09-03T12:03:02.637Z,99699.13
2022-09-03T12:05:06.133Z,99703.97
2022-09-03T12:07:32.948Z,99716.31
2022-09-03T12:10:02.126Z,99709.97
2022-09-03T12:12:33.414Z,99711.56
2022-09-03T12:14:57.456Z,99714.56
2022-09-03T12:17:31.192Z,99697.84
2022-09-03T12:19:38.522Z,99703.03
2022-09-03T12:21:41.520Z,99704.41
2022-09-03T12:23:50.463Z,99712.50
2022-09-03T12:25:53.415Z,99724.25
2022-09-03T12:27:56.268Z,99709.47
2022-09-03T12:30:01.056Z,99720.44
2022-09-03T12:32:13.778Z,99714.69
2022-09-03T12:34:18.531Z,99704.09
2022-09-03T12:36:23.166Z,99701.78
2022-09-03T12:38:27.647Z,99714.44
2022-09-03T12:40:31.757Z,99720.44
2022-09-03T12:42:34.505Z,99717.81
2022-09-03T12:44:37.029Z,99707.19
2022-09-03T12:46:40.408Z,99702.25
2022-09-03T12:53:52.039Z,99709.28
2022-09-03T12:55:57.646Z,99707.63
2022-09-03T12:58:13.861Z,99697.03
2022-09-03T13:00:19.023Z,99710.38
2022-09-03T13:02:28.410Z,99700.66
2022-09-03T13:04:37.531Z,99708.06
2022-09-03T13:07:17.774Z,99715.34
2022-09-03T13:09:26.609Z,99705.34
2022-09-03T13:11:33.276Z,99716.16
2022-09-03T13:13:38.021Z,99716.06
2022-09-03T13:15:43.040Z,99719.28
2022-09-03T13:18:03.382Z,99718.13
2022-09-03T13:20:18.536Z,99720.00
2022-09-03T13:22:33.182Z,99717.78
2022-09-03T13:24:46.658Z,99722.03
2022-09-03T13:27:00.938Z,99717.22
2022-09-03T13:29:29.720Z,99712.97
2022-09-03T13:31:39.166Z,99713.31
2022-09-03T13:33:51.170Z,99711.59
2022-09-03T13:36:10.278Z,99729.69
2022-09-03T13:38:27.112Z,99711.13
2022-09-03T13:40:45.117Z,99713.19
2022-09-03T13:42:56.954Z,99714.13
2022-09-03T13:45:12.190Z,99709.16
2022-09-03T13:47:34.367Z,99709.91
2022-09-03T13:50:23.484Z,99706.38
2022-09-03T13:52:43.179Z,99709.81
2022-09-03T13:54:53.352Z,99702.94
2022-09-03T13:57:02.726Z,99710.75
2022-09-03T13:59:20.020Z,99709.44
2022-09-03T14:01:54.050Z,99709.94
2022-09-03T14:04:03.039Z,99717.88
2022-09-03T14:06:08.580Z,99707.38
2022-09-03T14:08:32.870Z,99706.25
2022-09-03T14:10:54.126Z,99715.50
2022-09-03T14:13:09.044Z,99712.13
2022-09-03T14:15:50.089Z,99711.44
2022-09-03T14:18:00.181Z,99708.34
2022-09-03T14:20:14.157Z,99702.13
2022-09-03T14:22:23.536Z,99709.28
2022-09-03T14:24:46.506Z,99712.50
2022-09-03T14:26:59.182Z,99715.38
2022-09-03T14:29:07.970Z,99708.31
2022-09-03T14:31:27.258Z,99706.84
2022-09-03T14:33:39.667Z,99706.56
2022-09-03T14:36:12.570Z,99710.25
2022-09-03T14:38:58.160Z,99706.88
2022-09-03T14:41:46.006Z,99703.13
2022-09-03T14:44:24.687Z,99698.56
2022-09-03T14:46:33.463Z,99701.88
2022-09-03T14:48:56.158Z,99705.63
2022-09-03T14:51:04.808Z,99704.72
2022-09-03T14:53:37.393Z,99694.59
2022-09-03T14:56:01.328Z,99717.72
2022-09-03T14:58:48.574Z,99692.38
2022-09-03T15:01:38.766Z,99703.38
2022-09-03T15:04:15.531Z,99706.31
2022-09-03T15:06:18.119Z,99708.22
2022-09-03T15:08:55.715Z,99697.41
2022-09-03T15:11:01.450Z,99697.84
2022-09-03T15:13:26.291Z,99703.38
2022-09-03T15:16:01.770Z,99708.69
2022-09-03T15:18:22.919Z,99704.94
2022-09-03T15:20:45.993Z,99709.34
2022-09-03T15:23:22.024Z,99711.84
2022-09-03T15:25:33.744Z,99711.53
2022-09-03T15:27:50.721Z,99713.06
2022-09-03T15:30:05.434Z,99719.88
2022-09-03T15:32:31.628Z,99730.97
2022-09-03T15:35:03.566Z,99728.09
2022-09-03T15:37:17.309Z,99722.03
2022-09-03T15:39:32.048Z,99728.22
2022-09-03T15:41:34.651Z,99730.97
2022-09-03T15:43:39.151Z,99741.03
2022-09-03T15:45:47.761Z,99739.59
2022-09-03T15:47:57.101Z,99736.72
2022-09-03T15:50:15.752Z,99728.78
2022-09-03T15:52:31.303Z,99745.19
2022-09-03T15:54:53.791Z,99734.31
2022-09-03T15:57:06.099Z,99739.88
2022-09-03T15:59:30.322Z,99744.44
2022-09-03T16:01:40.842Z,99737.47
2022-09-03T16:04:13.005Z,99745.13
2022-09-03T16:06:38.594Z,99744.84
2022-09-03T16:08:49.910Z,99744.19
2022-09-03T16:11:11.435Z,99747.94
2022-09-03T16:13:51.069Z,99745.03
2022-09-03T16:16:10.097Z,99741.34
2022-09-03T16:18:50.007Z,99759.66
2022-09-03T16:21:07.773Z,99760.31
2022-09-03T16:23:18.067Z,99757.06
2022-09-03T16:25:27.971Z,99763.41
2022-09-03T16:27:39.482Z,99761.75
2022-09-03T16:29:42.430Z,99763.03
2022-09-03T16:32:00.441Z,99761.09
2022-09-03T16:34:22.953Z,99763.19
2022-09-03T16:36:52.842Z,99764.47
2022-09-03T16:39:18.975Z,99772.75
2022-09-03T16:41:27.539Z,99768.34
2022-09-03T16:44:07.217Z,99769.63
2022-09-03T16:46:18.818Z,99762.19
2022-09-03T16:49:10.882Z,99772.84
2022-09-03T16:51:26.824Z,99762.91
2022-09-03T16:54:09.366Z,99764.06
2022-09-03T16:56:37.332Z,99770.50
2022-09-03T16:58:53.204Z,99770.50
2022-09-03T17:01:28.277Z,99760.94
2022-09-03T17:04:04.215Z,99777.59
2022-09-03T17:06:09.850Z,99770.31
2022-09-03T17:08:48.087Z,99773.66
2022-09-03T17:11:21.446Z,99775.47
2022-09-03T17:13:52.475Z,99774.97
2022-09-03T17:15:55.211Z,99777.84
2022-09-03T17:18:17.076Z,99768.31
2022-09-03T17:20:26.012Z,99779.28
2022-09-03T17:22:34.537Z,99778.78
2022-09-03T17:24:57.464Z,99773.59
2022-09-03T17:27:28.752Z,99778.44
2022-09-03T17:29:43.387Z,99755.25
2022-09-03T17:32:12.269Z,99766.91
2022-09-03T17:34:33.730Z,99776.78
2022-09-03T17:36:49.735Z,99769.47
2022-09-03T17:39:18.411Z,99774.47
2022-09-03T17:41:29.087Z,99776.84
2022-09-03T17:43:59.621Z,99771.97
2022-09-03T17:46:40.198Z,99774.81
2022-09-03T17:48:59.228Z,99771.19
2022-09-03T17:51:10.483Z,99775.09
2022-09-03T17:53:25.256Z,99764.22
2022-09-03T17:55:31.121Z,99778.25
2022-09-03T17:57:45.745Z,99777.59
2022-09-03T18:00:02.057Z,99777.69
2022-09-03T18:02:31.389Z,99778.94
2022-09-03T18:04:52.437Z,99774.41
2022-09-03T18:07:10.476Z,99777.25
2022-09-03T18:09:26.474Z,99777.06
2022-09-03T18:11:41.239Z,99777.06
2022-09-03T18:13:53.739Z,99769.44
2022-09-03T18:16:15.412Z,99778.50
2022-09-03T18:18:32.272Z,99786.41
2022-09-03T18:21:31.286Z,99779.00
2022-09-03T18:24:23.412Z,99778.50
2022-09-03T18:26:50.261Z,99784.41
2022-09-03T18:29:30.806Z,99781.88
2022-09-03T18:31:53.191Z,99784.09
2022-09-03T18:34:14.462Z,99788.47
2022-09-03T18:36:35.761Z,99755.78
2022-09-03T18:38:58.019Z,99782.66
2022-09-03T18:41:33.054Z,99777.19
2022-09-03T18:44:18.685Z,99773.94
2022-09-03T18:48:02.300Z,99768.19
2022-09-03T18:49:59.252Z,99773.84
2022-09-03T18:52:30.184Z,99783.00
2022-09-03T18:55:08.055Z,99780.59
2022-09-03T18:57:40.827Z,99772.09
2022-09-03T19:00:29.120Z,99774.72
2022-09-03T19:03:23.016Z,99770.31
2022-09-03T19:05:49.814Z,99772.38
2022-09-03T19:08:19.602Z,99773.09
2022-09-03T19:10:51.185Z,99779.59
2022-09-03T19:13:46.778Z,99770.88
2022-09-03T19:16:39.134Z,99778.91
2022-09-03T19:19:23.469Z,99766.41
2022-09-03T19:21:57.734Z,99774.75
2022-09-03T19:24:21.872Z,99771.63
2022-09-03T19:27:46.084Z,99773.56
2022-09-03T19:30:07.860Z,99779.44
2022-09-03T19:32:37.542Z,99771.31
2022-09-03T19:35:28.106Z,99774.97
2022-09-03T19:38:04.702Z,99778.81
2022-09-03T19:41:16.349Z,99779.94
2022-09-03T19:44:06.749Z,99781.16
2022-09-03T19:46:51.793Z,99783.91
2022-09-03T19:49:49.775Z,99786.22
2022-09-03T19:52:29.292Z,99774.66
2022-09-03T19:54:51.577Z,99764.59
2022-09-03T19:57:15.875Z,99763.88
2022-09-03T19:59:39.649Z,99764.38
2022-09-03T20:02:02.199Z,99766.81
2022-09-03T20:04:35.238Z,99767.31
2022-09-03T20:06:58.495Z,99759.91
2022-09-03T20:09:26.888Z,99769.88
2022-09-03T20:11:31.291Z,99770.06
2022-09-03T20:13:56.935Z,99773.59
2022-09-03T20:16:09.166Z,99778.50
2022-09-03T20:18:23.804Z,99766.09
2022-09-03T20:20:50.790Z,99751.38
2022-09-03T20:23:11.062Z,99750.88
2022-09-03T20:25:27.459Z,99761.53
2022-09-03T20:27:46.113Z,99744.69
2022-09-03T20:30:02.355Z,99734.44
2022-09-03T20:32:31.588Z,99752.78
2022-09-03T20:35:18.498Z,99757.47
2022-09-03T20:37:36.443Z,99751.78
2022-09-03T20:40:08.124Z,99752.06
2022-09-03T20:42:49.085Z,99748.53
2022-09-03T20:45:06.703Z,99743.47
2022-09-03T20:47:24.084Z,99741.03
2022-09-03T20:49:51.987Z,99734.25
2022-09-03T20:52:27.081Z,99738.91
2022-09-03T20:54:33.895Z,99745.00
2022-09-03T20:56:44.146Z,99744.72
2022-09-03T20:59:08.150Z,99742.56
2022-09-03T21:01:22.928Z,99741.88
2022-09-03T21:03:44.705Z,99742.09
2022-09-03T21:06:15.535Z,99749.81
2022-09-03T21:08:46.724Z,99747.97
2022-09-03T21:11:02.282Z,99750.00
2022-09-03T21:13:47.351Z,99750.59
2022-09-03T21:15:59.078Z,99744.72
2022-09-03T21:18:20.145Z,99744.31
2022-09-03T21:20:34.183Z,99744.94
2022-09-03T21:22:49.023Z,99753.84
2022-09-03T21:25:05.161Z,99751.81
2022-09-03T21:27:15.816Z,99753.06
2022-09-03T21:29:31.081Z,99757.50
2022-09-03T21:31:49.227Z,99750.81
2022-09-03T21:33:58.762Z,99756.59
2022-09-03T21:36:16.574Z,99750.00
2022-09-03T21:38:27.055Z,99757.72
2022-09-03T21:40:33.324Z,99753.84
2022-09-03T21:43:19.811Z,99750.00
2022-09-03T21:46:00.327Z,99756.28
2022-09-03T21:48:26.994Z,99757.41
2022-09-03T21:50:56.219Z,99761.75
2022-09-03T21:53:03.793Z,99763.38
2022-09-03T21:55:25.874Z,99766.06
2022-09-03T21:57:47.788Z,99763.78
2022-09-03T22:00:18.265Z,99767.94
2022-09-03T22:02:32.233Z,99761.66
2022-09-03T22:04:35.028Z,99762.06
2022-09-03T22:07:16.969Z,99757.41
2022-09-03T22:10:05.914Z,99758.00
2022-09-03T22:12:38.586Z,99758.38
2022-09-03T22:14:48.357Z,99761.22
2022-09-03T22:17:00.234Z,99763.75
2022-09-03T22:19:02.816Z,99767.91
2022-09-03T22:21:59.458Z,99764.22
2022-09-03T22:24:23.437Z,99755.78
2022-09-03T22:26:55.259Z,99759.13
2022-09-03T22:29:02.806Z,99755.25
2022-09-03T22:31:40.461Z,99751.19
2022-09-03T22:34:15.343Z,99761.09
2022-09-03T22:36:33.204Z,99760.91
2022-09-03T22:39:03.521Z,99754.09
2022-09-03T22:41:17.803Z,99759.06
2022-09-03T22:43:45.859Z,99760.19
2022-09-03T22:45:48.552Z,99756.59
2022-09-03T22:48:10.514Z,99751.97
2022-09-03T22:50:20.721Z,99761.78
2022-09-03T22:52:39.111Z,99752.25
2022-09-03T22:54:49.624Z,99763.19
2022-09-03T22:56:54.686Z,99755.28
2022-09-03T22:59:16.223Z,99762.38
2022-09-03T23:01:37.984Z,99766.13
2022-09-03T23:03:48.837Z,99767.16
2022-09-03T23:05:59.662Z,99763.84
2022-09-03T23:08:09.909Z,99762.75
2022-09-03T23:10:22.650Z,99771.75
2022-09-03T23:12:54.081Z,99764.16
2022-09-03T23:15:01.557Z,99777.47
2022-09-03T23:17:14.902Z,99770.06
2022-09-03T23:19:35.824Z,99778.25
2022-09-03T23:21:41.250Z,99754.63
2022-09-03T23:23:55.917Z,99764.59
2022-09-03T23:26:16.748Z,99768.13
2022-09-03T23:28:33.299Z,99764.59
2022-09-03T23:30:36.711Z,99760.81
2022-09-03T23:32:39.476Z,99764.88
2022-09-03T23:34:42.140Z,99766.81
2022-09-03T23:37:22.499Z,99763.53
2022-09-03T23:39:43.988Z,99772.03
2022-09-03T23:42:19.377Z,99770.44
2022-09-03T23:44:52.275Z,99758.97
2022-09-03T23:47:39.930Z,99761.19
2022-09-03T23:49:49.094Z,99762.38
2022-09-03T23:52:19.368Z,99759.66
2022-09-03T23:54:34.562Z,99757.19
2022-09-03T23:56:56.652Z,99762.47
2022-09-03T23:59:17.939Z,99754.03
